Time;durP1;ratioP1;P1;durP2;ratioP2;P2;SDS_P1;SDS_P2;PMS_P1;PMS_P2;Temp;Humidity;BMP_temperature;BMP_pressure;BME280_temperature;BME280_humidity;BME280_pressure;Samples;Min_cycle;Max_cycle;Signal;HPM_P1;HPM_P2
2021/11/04 00:01:37;;;;;;;;;;;;;;;12.72;67.12;98860.75;4359425;32;34628;-86
2021/11/04 00:04:04;;;;;;;;;;;;;;;12.76;67.38;98841.91;4350896;32;34173;-85
2021/11/04 00:06:31;;;;;;;;;;;;;;;12.47;68.32;98846.50;4349768;32;32467;-85
2021/11/04 00:08:59;;;;;;;;;;;;;;;12.77;67.54;98826.84;4350280;32;33132;-85
2021/11/04 00:11:26;;;;;;;;;;;;;;;12.63;68.13;98834.87;4351135;32;33732;-85
2021/11/04 00:13:54;;;;;;;;;;;;;;;12.37;69.07;98837.50;4363212;32;34085;-85
2021/11/04 00:16:21;;;;;;;;;;;;;;;12.49;68.58;98860.50;4351020;32;33341;-85
2021/11/04 00:18:49;;;;;;;;;;;;;;;12.31;69.14;98861.72;4351049;32;34061;-86
2021/11/04 00:21:16;;;;;;;;;;;;;;;12.85;67.51;98845.72;4340241;32;792833;-85
2021/11/04 00:23:44;;;;;;;;;;;;;;;12.65;68.22;98839.12;4350985;32;34211;-83
2021/11/04 00:26:11;;;;;;;;;;;;;;;12.43;69.04;98850.31;4351060;32;33979;-83
2021/11/04 00:28:39;;;;;;;;;;;;;;;12.62;68.65;98839.34;4348430;32;32884;-83
2021/11/04 00:31:06;;;;;;;;;;;;;;;12.90;67.51;98843.63;4363059;32;33759;-84
2021/11/04 00:33:37;;;;;;;;;;;;;;;12.72;68.18;98852.81;4350517;32;34504;-84
2021/11/04 00:36:05;;;;;;;;;;;;;;;12.74;68.04;98848.28;4350127;32;33003;-83
2021/11/04 00:38:33;;;;;;;;;;;;;;;12.77;67.94;98842.75;4338541;32;34413;-83
2021/11/04 00:41:00;;;;;;;;;;;;;;;12.84;67.99;98859.09;4362846;32;33859;-84
2021/11/04 00:43:28;;;;;;;;;;;;;;;12.77;68.39;98856.88;4350570;32;32994;-83
2021/11/04 00:45:55;;;;;;;;;;;;;;;13.10;67.22;98852.00;4360447;32;32443;-83
2021/11/04 00:48:23;;;;;;;;;;;;;;;12.75;68.21;98860.56;4356315;32;33909;-84
2021/11/04 00:50:50;;;;;;;;;;;;;;;12.54;68.74;98857.56;4339154;32;34171;-84
2021/11/04 00:53:17;;;;;;;;;;;;;;;12.48;69.31;98848.19;4350899;32;33348;-84
2021/11/04 00:55:45;;;;;;;;;;;;;;;12.13;70.83;98847.03;4350744;32;33427;-83
2021/11/04 00:58:12;;;;;;;;;;;;;;;12.30;70.34;98850.28;4348391;32;33738;-84
2021/11/04 01:00:40;;;;;;;;;;;;;;;12.08;71.54;98857.09;4338636;32;33047;-85
2021/11/04 01:03:10;;;;;;;;;;;;;;;12.52;69.90;98865.59;4337281;32;32875;-85
2021/11/04 01:05:37;;;;;;;;;;;;;;;12.84;68.72;98859.94;4360452;32;32231;-85
2021/11/04 01:08:05;;;;;;;;;;;;;;;12.61;69.89;98863.28;4347864;32;33600;-85
2021/11/04 01:10:32;;;;;;;;;;;;;;;12.57;69.90;98852.88;4342386;32;33610;-85
2021/11/04 01:13:00;;;;;;;;;;;;;;;12.60;69.94;98846.56;4341726;32;33142;-85
2021/11/04 01:15:27;;;;;;;;;;;;;;;12.86;69.33;98831.53;4352723;32;32898;-85
2021/11/04 01:17:55;;;;;;;;;;;;;;;12.90;69.16;98825.06;4351402;32;34979;-85
2021/11/04 01:20:22;;;;;;;;;;;;;;;12.77;69.73;98813.59;4359329;32;33634;-84
2021/11/04 01:22:50;;;;;;;;;;;;;;;12.43;71.16;98807.94;4355969;32;34804;-84
2021/11/04 01:25:17;;;;;;;;;;;;;;;12.78;69.82;98781.75;4342227;32;32246;-84
2021/11/04 01:27:45;;;;;;;;;;;;;;;12.75;69.99;98778.44;4357906;32;33598;-84
2021/11/04 01:30:12;;;;;;;;;;;;;;;12.87;69.67;98782.91;4357639;32;34650;-84
2021/11/04 01:32:40;;;;;;;;;;;;;;;12.51;71.00;98797.69;4358110;32;33975;-84
2021/11/04 01:35:08;;;;;;;;;;;;;;;12.47;71.01;98790.91;4357733;32;33413;-84
2021/11/04 01:37:35;;;;;;;;;;;;;;;12.69;70.29;98778.88;4353669;32;34150;-84
2021/11/04 01:40:03;;;;;;;;;;;;;;;13.01;69.45;98777.50;4358620;32;33203;-84
2021/11/04 01:42:31;;;;;;;;;;;;;;;12.77;70.31;98771.22;4355662;32;33962;-84
2021/11/04 01:44:58;;;;;;;;;;;;;;;13.27;68.55;98767.72;4348074;33;33014;-85
2021/11/04 01:47:26;;;;;;;;;;;;;;;13.32;68.24;98767.41;4354130;32;33689;-85
2021/11/04 01:49:53;;;;;;;;;;;;;;;13.13;68.86;98785.53;4355487;32;34209;-85
2021/11/04 01:52:20;;;;;;;;;;;;;;;13.08;69.18;98804.41;4356045;32;33784;-85
2021/11/04 01:54:48;;;;;;;;;;;;;;;13.11;69.01;98819.25;4356620;32;32607;-85
2021/11/04 01:57:15;;;;;;;;;;;;;;;13.20;68.90;98823.91;4344975;32;32493;-85
2021/11/04 01:59:42;;;;;;;;;;;;;;;13.30;68.62;98832.94;4355541;32;34090;-85
2021/11/04 02:02:18;;;;;;;;;;;;;;;13.45;68.08;98837.16;4353535;32;34118;-85
2021/11/04 02:04:59;;;;;;;;;;;;;;;13.36;68.36;98843.13;4356473;32;32950;-84
2021/11/04 02:07:35;;;;;;;;;;;;;;;13.47;68.00;98845.84;4352446;32;33571;-85
2021/11/04 02:10:04;;;;;;;;;;;;;;;13.66;67.39;98820.66;4347150;32;32958;-85
2021/11/04 02:12:33;;;;;;;;;;;;;;;13.58;67.50;98835.34;4347109;32;33428;-84
2021/11/04 02:15:00;;;;;;;;;;;;;;;13.49;68.07;98829.84;4361735;32;32509;-84
2021/11/04 02:17:28;;;;;;;;;;;;;;;13.80;66.66;98823.19;4347875;32;33323;-85
2021/11/04 02:19:57;;;;;;;;;;;;;;;13.28;68.63;98833.03;4348274;33;34335;-84
2021/11/04 02:22:27;;;;;;;;;;;;;;;13.25;68.80;98829.78;4348087;33;34144;-83
2021/11/04 02:25:09;;;;;;;;;;;;;;;13.10;69.47;98820.19;4352863;32;33119;-84
2021/11/04 02:27:41;;;;;;;;;;;;;;;13.45;67.99;98808.00;4350674;32;33768;-84
2021/11/04 02:30:09;;;;;;;;;;;;;;;13.22;69.00;98799.00;4349896;32;34266;-84
2021/11/04 02:32:36;;;;;;;;;;;;;;;13.45;68.13;98778.81;4349573;32;33770;-84
2021/11/04 02:35:04;;;;;;;;;;;;;;;13.07;69.65;98782.34;4349642;32;33407;-84
2021/11/04 02:37:31;;;;;;;;;;;;;;;13.63;67.65;98779.31;4350021;32;34850;-86
2021/11/04 02:39:59;;;;;;;;;;;;;;;13.48;68.05;98781.28;4350343;32;33167;-86
2021/11/04 02:42:27;;;;;;;;;;;;;;;13.39;68.60;98786.34;4349786;32;34830;-84
2021/11/04 02:44:54;;;;;;;;;;;;;;;13.89;66.62;98774.75;4342094;33;33322;-84
2021/11/04 02:47:41;;;;;;;;;;;;;;;13.60;67.62;98768.91;4345461;33;32827;-85
2021/11/04 02:50:09;;;;;;;;;;;;;;;13.28;68.82;98765.91;4361727;32;33995;-86
2021/11/04 02:52:37;;;;;;;;;;;;;;;13.72;67.20;98761.84;4349710;32;34780;-86
2021/11/04 02:55:04;;;;;;;;;;;;;;;13.01;69.74;98761.59;4350398;32;32810;-85
2021/11/04 02:57:36;;;;;;;;;;;;;;;13.44;68.41;98769.19;4349773;32;35319;-86
2021/11/04 03:00:03;;;;;;;;;;;;;;;13.31;68.82;98757.75;4349789;32;33433;-86
2021/11/04 03:02:30;;;;;;;;;;;;;;;13.51;68.20;98765.13;4349467;32;34220;-84
2021/11/04 03:04:58;;;;;;;;;;;;;;;13.62;67.54;98777.59;4349728;32;32994;-84
2021/11/04 03:07:25;;;;;;;;;;;;;;;13.27;68.71;98788.94;4349873;32;34168;-84
2021/11/04 03:09:52;;;;;;;;;;;;;;;12.90;70.15;98798.56;4349322;32;32846;-84
2021/11/04 03:12:20;;;;;;;;;;;;;;;13.38;68.67;98812.03;4349430;32;34176;-84
2021/11/04 03:14:47;;;;;;;;;;;;;;;13.50;68.23;98805.88;4348573;32;32440;-84
2021/11/04 03:17:15;;;;;;;;;;;;;;;13.28;69.14;98789.78;4346782;33;32898;-84
2021/11/04 03:19:43;;;;;;;;;;;;;;;13.62;68.44;98755.53;4357353;32;33697;-85
2021/11/04 03:22:10;;;;;;;;;;;;;;;13.49;69.25;98756.44;4359601;32;34926;-85
2021/11/04 03:24:37;;;;;;;;;;;;;;;13.63;68.79;98760.75;4358441;32;33304;-84
2021/11/04 03:27:06;;;;;;;;;;;;;;;13.74;68.38;98739.56;4342825;33;33518;-85
2021/11/04 03:29:36;;;;;;;;;;;;;;;13.30;69.80;98733.06;4351081;32;33357;-85
2021/11/04 03:32:04;;;;;;;;;;;;;;;13.28;70.40;98736.75;4349798;32;33919;-85
2021/11/04 03:34:32;;;;;;;;;;;;;;;13.05;70.84;98718.03;4361988;32;32983;-85
2021/11/04 03:37:00;;;;;;;;;;;;;;;13.09;71.51;98715.97;4349171;32;34397;-85
2021/11/04 03:39:43;;;;;;;;;;;;;;;13.20;71.10;98707.28;4347214;32;34223;-84
2021/11/04 03:42:11;;;;;;;;;;;;;;;12.67;72.31;98714.56;4349256;32;33850;-84
2021/11/04 03:44:41;;;;;;;;;;;;;;;12.55;73.24;98717.09;4347206;32;31946;-86
2021/11/04 03:47:09;;;;;;;;;;;;;;;13.00;71.79;98712.19;4346922;33;34539;-86
2021/11/04 03:49:37;;;;;;;;;;;;;;;12.72;72.98;98734.50;4359353;32;33326;-87
2021/11/04 03:52:04;;;;;;;;;;;;;;;12.79;72.53;98746.34;4334790;33;34196;-86
2021/11/04 03:54:32;;;;;;;;;;;;;;;12.77;72.97;98756.22;4334760;33;32017;-86
2021/11/04 03:56:59;;;;;;;;;;;;;;;12.88;72.34;98758.09;4352444;32;34768;-86
2021/11/04 03:59:27;;;;;;;;;;;;;;;13.20;71.54;98753.19;4337880;32;33946;-87
2021/11/04 04:01:54;;;;;;;;;;;;;;;13.20;71.55;98752.34;4361825;32;34790;-87
2021/11/04 04:04:22;;;;;;;;;;;;;;;13.22;71.42;98769.00;4361746;32;33544;-87
2021/11/04 04:06:55;;;;;;;;;;;;;;;13.49;70.50;98761.75;4361701;32;34747;-87
2021/11/04 04:09:23;;;;;;;;;;;;;;;13.29;71.06;98743.75;4343749;32;33625;-86
2021/11/04 04:11:51;;;;;;;;;;;;;;;13.25;71.52;98763.50;4348949;32;33989;-86
2021/11/04 04:14:18;;;;;;;;;;;;;;;13.51;70.43;98738.59;4349177;32;33436;-86
2021/11/04 04:16:46;;;;;;;;;;;;;;;13.29;71.55;98743.75;4349257;32;32947;-87
2021/11/04 04:19:13;;;;;;;;;;;;;;;13.37;71.22;98733.44;4339812;33;33147;-87
2021/11/04 04:21:41;;;;;;;;;;;;;;;13.22;71.96;98737.19;4345835;32;33546;-88
2021/11/04 04:24:08;;;;;;;;;;;;;;;13.60;70.23;98725.63;4338517;32;32498;-88
2021/11/04 04:26:35;;;;;;;;;;;;;;;13.30;71.69;98729.56;4348152;32;33344;-88
2021/11/04 04:29:03;;;;;;;;;;;;;;;13.37;71.75;98729.94;4360054;32;34778;-88
2021/11/04 04:31:30;;;;;;;;;;;;;;;13.10;72.49;98728.28;4350804;32;32540;-89
2021/11/04 04:33:58;;;;;;;;;;;;;;;13.25;72.11;98706.03;4346838;33;32785;-89
2021/11/04 04:36:25;;;;;;;;;;;;;;;12.64;74.72;98704.19;4336728;32;33092;-89
2021/11/04 04:38:54;;;;;;;;;;;;;;;13.07;73.38;98697.56;4351353;32;34251;-89
2021/11/04 04:41:22;;;;;;;;;;;;;;;13.06;73.11;98685.25;4339085;32;33278;-89
2021/11/04 04:43:49;;;;;;;;;;;;;;;12.91;73.80;98678.38;4351276;32;33026;-89
2021/11/04 04:46:18;;;;;;;;;;;;;;;12.88;74.12;98681.28;4350941;32;33142;-89
2021/11/04 04:48:45;;;;;;;;;;;;;;;13.32;72.27;98674.59;4351249;32;33060;-89
2021/11/04 04:51:13;;;;;;;;;;;;;;;13.58;71.26;98655.00;4351328;32;32631;-88
2021/11/04 04:53:40;;;;;;;;;;;;;;;13.80;70.31;98640.09;4350742;32;32527;-88
2021/11/04 04:56:07;;;;;;;;;;;;;;;13.42;71.73;98642.97;4351549;32;33896;-89
2021/11/04 04:58:35;;;;;;;;;;;;;;;12.99;73.66;98646.06;4349971;32;32882;-89
2021/11/04 05:01:03;;;;;;;;;;;;;;;13.30;72.69;98669.44;4341545;33;33014;-88
2021/11/04 05:03:31;;;;;;;;;;;;;;;13.07;73.78;98702.00;4346064;33;33977;-88
2021/11/04 05:05:58;;;;;;;;;;;;;;;12.90;74.55;98747.38;4346731;32;33418;-87
2021/11/04 05:08:26;;;;;;;;;;;;;;;12.68;75.46;98801.03;4352032;32;34309;-88
2021/11/04 05:10:54;;;;;;;;;;;;;;;12.54;76.48;98834.56;4352972;32;34324;-86
2021/11/04 05:13:21;;;;;;;;;;;;;;;12.94;74.95;98842.44;4342555;32;32496;-86
2021/11/04 05:15:49;;;;;;;;;;;;;;;13.17;73.87;98819.66;4349441;32;33299;-87
2021/11/04 05:18:16;;;;;;;;;;;;;;;13.02;74.73;98813.63;4348988;32;33128;-86
2021/11/04 05:20:43;;;;;;;;;;;;;;;12.86;75.43;98805.03;4347878;32;34695;-86
2021/11/04 05:23:11;;;;;;;;;;;;;;;13.36;73.52;98808.66;4359454;32;33513;-86
2021/11/04 05:25:38;;;;;;;;;;;;;;;13.17;74.08;98814.38;4362408;32;32893;-86
2021/11/04 05:28:05;;;;;;;;;;;;;;;13.24;73.92;98815.66;4349995;32;34133;-86
2021/11/04 05:30:33;;;;;;;;;;;;;;;13.15;74.54;98810.09;4337042;32;33811;-86
2021/11/04 05:33:00;;;;;;;;;;;;;;;13.50;73.04;98808.50;4348918;32;31735;-86
2021/11/04 05:35:29;;;;;;;;;;;;;;;13.89;71.21;98774.75;4347940;32;33481;-87
2021/11/04 05:37:56;;;;;;;;;;;;;;;13.45;72.92;98775.34;4360276;32;33130;-89
2021/11/04 05:40:24;;;;;;;;;;;;;;;13.35;73.26;98763.69;4350138;32;33113;-89
2021/11/04 05:42:52;;;;;;;;;;;;;;;13.17;74.09;98765.81;4336353;32;33126;-90
2021/11/04 05:45:39;;;;;;;;;;;;;;;13.29;73.56;98739.31;4350341;32;33106;-87
2021/11/04 05:48:06;;;;;;;;;;;;;;;13.17;74.38;98760.50;4347830;32;34242;-85
2021/11/04 05:50:34;;;;;;;;;;;;;;;12.72;76.11;98773.34;4358651;32;32832;-84
2021/11/04 05:53:01;;;;;;;;;;;;;;;13.05;75.20;98778.97;4349442;32;32981;-86
2021/11/04 05:55:29;;;;;;;;;;;;;;;13.08;74.95;98777.91;4340999;32;33120;-87
2021/11/04 05:57:57;;;;;;;;;;;;;;;13.16;74.70;98746.41;4350640;32;33095;-88
2021/11/04 06:00:24;;;;;;;;;;;;;;;12.66;76.69;98695.16;4350629;32;33290;-88
2021/11/04 06:02:52;;;;;;;;;;;;;;;12.26;78.46;98621.19;4363182;32;32440;-89
2021/11/04 06:05:19;;;;;;;;;;;;;;;11.88;80.29;98565.63;4357654;32;34048;-87
2021/11/04 06:07:46;;;;;;;;;;;;;;;12.14;79.50;98589.41;4347855;32;32791;-87
2021/11/04 06:10:16;;;;;;;;;;;;;;;12.32;78.94;98664.03;4358631;32;33303;-85
2021/11/04 06:12:43;;;;;;;;;;;;;;;12.07;79.87;98672.81;4349967;32;31787;-87
2021/11/04 06:15:10;;;;;;;;;;;;;;;12.30;79.50;98680.03;4349905;32;34587;-87
2021/11/04 06:17:38;;;;;;;;;;;;;;;12.58;78.11;98686.94;4359881;32;34063;-87
2021/11/04 06:20:06;;;;;;;;;;;;;;;12.72;77.28;98673.56;4356325;32;34867;-87
2021/11/04 06:22:34;;;;;;;;;;;;;;;12.64;78.21;98680.34;4350364;32;32986;-86
2021/11/04 06:25:03;;;;;;;;;;;;;;;12.37;79.25;98697.19;4350405;32;32925;-87
2021/11/04 06:27:30;;;;;;;;;;;;;;;12.72;78.39;98688.59;4356227;32;33203;-87
2021/11/04 06:29:58;;;;;;;;;;;;;;;12.53;79.03;98687.25;4360773;32;34382;-84
2021/11/04 06:32:26;;;;;;;;;;;;;;;12.62;78.63;98693.69;4347945;32;32366;-83
2021/11/04 06:34:54;;;;;;;;;;;;;;;12.53;78.90;98713.72;4347601;32;34087;-84
2021/11/04 06:37:21;;;;;;;;;;;;;;;12.94;76.91;98701.19;4336336;32;32803;-84
2021/11/04 06:39:49;;;;;;;;;;;;;;;13.10;76.35;98687.69;4348250;32;33845;-88
2021/11/04 06:42:16;;;;;;;;;;;;;;;13.05;76.49;98709.19;4361286;32;32107;-86
2021/11/04 06:44:43;;;;;;;;;;;;;;;13.05;76.33;98698.59;4346891;32;35020;-86
2021/11/04 06:47:19;;;;;;;;;;;;;;;12.96;76.71;98689.53;4358758;32;34996;-86
2021/11/04 06:49:46;;;;;;;;;;;;;;;12.76;77.51;98698.88;4349074;32;33772;-86
2021/11/04 06:52:14;;;;;;;;;;;;;;;13.05;76.69;98702.12;4350394;32;32647;-88
2021/11/04 06:54:41;;;;;;;;;;;;;;;12.83;77.48;98694.00;4349862;32;34214;-88
2021/11/04 06:57:12;;;;;;;;;;;;;;;13.27;75.70;98682.06;4350538;32;33826;-88
2021/11/04 06:59:40;;;;;;;;;;;;;;;13.42;75.03;98675.63;4350248;32;33211;-88
2021/11/04 07:02:07;;;;;;;;;;;;;;;13.00;76.79;98684.84;4359964;32;32137;-88
2021/11/04 07:04:36;;;;;;;;;;;;;;;13.29;75.56;98669.50;4349468;32;32947;-88
2021/11/04 07:07:09;;;;;;;;;;;;;;;13.29;75.70;98669.50;4348834;32;35001;-83
2021/11/04 07:09:37;;;;;;;;;;;;;;;13.70;74.18;98662.97;4359915;32;34115;-83
2021/11/04 07:12:07;;;;;;;;;;;;;;;13.37;75.67;98680.41;4343325;32;32049;-83
2021/11/04 07:14:36;;;;;;;;;;;;;;;13.24;76.64;98671.66;4347127;32;30829;-83
2021/11/04 07:17:03;;;;;;;;;;;;;;;13.38;76.37;98679.44;4347941;32;34981;-83
2021/11/04 07:19:33;;;;;;;;;;;;;;;13.87;74.48;98701.53;4360812;32;34472;-84
2021/11/04 07:22:06;;;;;;;;;;;;;;;13.85;74.44;98701.62;4345517;32;32415;-83
2021/11/04 07:24:37;;;;;;;;;;;;;;;13.84;74.17;98686.69;4357798;32;33517;-84
2021/11/04 07:27:15;;;;;;;;;;;;;;;14.05;73.51;98685.06;4345765;32;32725;-83
2021/11/04 07:29:48;;;;;;;;;;;;;;;13.61;75.53;98669.81;4360016;32;32693;-84
2021/11/04 07:32:16;;;;;;;;;;;;;;;13.55;76.27;98681.72;4326692;32;32791;-84
2021/11/04 07:34:44;;;;;;;;;;;;;;;13.99;74.87;98680.22;4349665;32;34589;-84
2021/11/04 07:37:12;;;;;;;;;;;;;;;13.47;76.76;98680.59;4348987;32;33821;-84
2021/11/04 07:39:42;;;;;;;;;;;;;;;13.81;75.52;98689.53;4359409;32;34782;-84
2021/11/04 07:42:09;;;;;;;;;;;;;;;13.91;75.03;98687.91;4348344;32;33750;-84
2021/11/04 07:44:37;;;;;;;;;;;;;;;14.06;74.56;98676.16;4360566;32;33889;-84
2021/11/04 07:47:06;;;;;;;;;;;;;;;13.72;76.18;98698.19;4347984;32;33611;-84
2021/11/04 07:49:34;;;;;;;;;;;;;;;14.07;74.99;98695.56;4348389;32;33782;-85
2021/11/04 07:52:02;;;;;;;;;;;;;;;14.04;75.25;98699.28;4362143;32;33291;-84
2021/11/04 07:54:29;;;;;;;;;;;;;;;13.79;76.61;98728.63;4348230;32;34692;-84
2021/11/04 07:56:57;;;;;;;;;;;;;;;14.19;75.14;98717.66;4343706;32;32995;-84
2021/11/04 07:59:28;;;;;;;;;;;;;;;14.33;74.43;98713.00;4345292;32;33673;-84
2021/11/04 08:01:56;;;;;;;;;;;;;;;14.25;75.04;98722.53;4348630;32;33014;-84
2021/11/04 08:04:24;;;;;;;;;;;;;;;14.41;74.47;98723.03;4359635;32;34316;-84
2021/11/04 08:06:52;;;;;;;;;;;;;;;14.30;75.22;98704.44;4359747;32;34033;-84
2021/11/04 08:09:19;;;;;;;;;;;;;;;14.16;75.54;98694.88;4345951;32;32818;-84
2021/11/04 08:11:47;;;;;;;;;;;;;;;14.13;76.07;98708.38;4348904;32;33555;-84
2021/11/04 08:14:15;;;;;;;;;;;;;;;13.99;76.81;98733.28;4347839;32;34048;-82
2021/11/04 08:16:42;;;;;;;;;;;;;;;14.48;74.66;98752.66;4358871;32;33573;-84
2021/11/04 08:19:10;;;;;;;;;;;;;;;14.16;76.05;98784.28;4360799;32;34377;-83
2021/11/04 08:21:37;;;;;;;;;;;;;;;14.46;75.15;98752.75;4362483;32;33073;-83
2021/11/04 08:24:05;;;;;;;;;;;;;;;14.38;75.43;98752.47;4346656;32;33045;-83
2021/11/04 08:26:40;;;;;;;;;;;;;;;14.90;73.38;98742.34;4350256;32;33787;-84
2021/11/04 08:29:08;;;;;;;;;;;;;;;14.56;74.82;98740.50;4349688;32;34007;-83
2021/11/04 08:31:36;;;;;;;;;;;;;;;14.36;75.91;98711.94;4336992;32;33107;-83
2021/11/04 08:34:03;;;;;;;;;;;;;;;14.34;75.98;98717.38;4349489;32;33050;-83
2021/11/04 08:36:30;;;;;;;;;;;;;;;14.48;75.77;98719.00;4349856;32;33128;-84
2021/11/04 08:38:58;;;;;;;;;;;;;;;14.27;76.48;98753.31;4347769;32;34323;-83
2021/11/04 08:41:25;;;;;;;;;;;;;;;14.46;75.66;98750.09;4362144;32;33435;-83
2021/11/04 08:43:53;;;;;;;;;;;;;;;14.91;74.28;98733.41;4350616;32;33336;-83
2021/11/04 08:46:21;;;;;;;;;;;;;;;14.74;74.95;98724.09;4350393;32;34292;-83
2021/11/04 08:48:48;;;;;;;;;;;;;;;14.66;75.43;98747.75;4350130;32;32983;-88
2021/11/04 08:51:15;;;;;;;;;;;;;;;14.79;74.96;98740.53;4350267;32;33066;-88
2021/11/04 08:53:43;;;;;;;;;;;;;;;14.71;75.74;98748.25;4350460;32;34097;-87
2021/11/04 08:56:12;;;;;;;;;;;;;;;15.16;74.00;98729.66;4350544;32;34995;-88
2021/11/04 08:58:40;;;;;;;;;;;;;;;15.15;73.99;98728.81;4338244;32;34011;-88
2021/11/04 09:01:07;;;;;;;;;;;;;;;15.38;72.96;98734.94;4350591;32;32173;-87
2021/11/04 09:03:36;;;;;;;;;;;;;;;15.26;73.41;98757.22;4350211;32;32669;-87
2021/11/04 09:06:03;;;;;;;;;;;;;;;15.25;73.58;98776.81;4350289;32;33548;-87
2021/11/04 09:08:31;;;;;;;;;;;;;;;15.44;72.71;98808.97;4350180;32;33137;-87
2021/11/04 09:11:04;;;;;;;;;;;;;;;15.10;74.00;98822.25;4347749;32;32173;-86
2021/11/04 09:13:32;;;;;;;;;;;;;;;15.33;73.16;98822.22;4349963;32;33395;-86
2021/11/04 09:15:59;;;;;;;;;;;;;;;15.43;72.78;98836.53;4349902;32;33326;-86
2021/11/04 09:18:26;;;;;;;;;;;;;;;15.31;73.16;98862.25;4350077;32;33996;-86
2021/11/04 09:20:54;;;;;;;;;;;;;;;15.46;73.03;98872.66;4350373;32;32627;-86
2021/11/04 09:23:21;;;;;;;;;;;;;;;15.90;71.01;98873.63;4360031;32;33127;-86
2021/11/04 09:25:48;;;;;;;;;;;;;;;15.38;73.04;98846.66;4348981;32;34279;-86
2021/11/04 09:28:16;;;;;;;;;;;;;;;14.93;75.39;98798.78;4350310;32;32992;-86
2021/11/04 09:30:43;;;;;;;;;;;;;;;14.88;76.34;98800.94;4349410;32;31899;-86
2021/11/04 09:33:11;;;;;;;;;;;;;;;14.74;77.69;98809.97;4349908;32;34091;-86
2021/11/04 09:35:40;;;;;;;;;;;;;;;15.23;76.28;98807.97;4350204;32;34148;-87
2021/11/04 09:38:08;;;;;;;;;;;;;;;15.36;75.78;98811.37;4350223;32;33523;-87
2021/11/04 09:40:35;;;;;;;;;;;;;;;15.59;75.08;98799.75;4350330;32;32742;-87
2021/11/04 09:43:03;;;;;;;;;;;;;;;15.75;74.55;98822.47;4363439;32;33996;-87
2021/11/04 09:45:30;;;;;;;;;;;;;;;15.76;74.81;98848.13;4339382;32;35098;-88
2021/11/04 09:47:58;;;;;;;;;;;;;;;16.18;73.72;98850.94;4350079;32;34920;-88
2021/11/04 09:50:25;;;;;;;;;;;;;;;16.40;73.04;98845.56;4350313;32;33389;-88
2021/11/04 09:52:56;;;;;;;;;;;;;;;16.38;73.69;98826.19;4350290;32;32961;-88
2021/11/04 09:55:27;;;;;;;;;;;;;;;16.17;75.09;98823.47;4350818;32;34202;-88
2021/11/04 09:57:56;;;;;;;;;;;;;;;16.41;74.86;98809.09;4349971;32;34037;-88
2021/11/04 10:00:30;;;;;;;;;;;;;;;16.11;76.29;98822.16;4350186;32;33354;-89
2021/11/04 10:03:02;;;;;;;;;;;;;;;16.03;76.84;98832.59;4346196;32;33421;-89
2021/11/04 10:05:30;;;;;;;;;;;;;;;16.58;74.79;98814.72;4338117;32;32831;-89
2021/11/04 10:07:57;;;;;;;;;;;;;;;16.21;75.55;98806.28;4347998;32;33608;-89
2021/11/04 10:10:25;;;;;;;;;;;;;;;16.45;74.85;98818.53;4354535;32;32561;-89
2021/11/04 10:13:01;;;;;;;;;;;;;;;16.21;75.61;98814.25;4360882;32;34004;-89
2021/11/04 10:15:34;;;;;;;;;;;;;;;16.35;75.14;98831.78;4351226;32;33973;-90
2021/11/04 10:18:12;;;;;;;;;;;;;;;16.78;73.41;98839.72;4350270;32;33586;-89
2021/11/04 10:20:40;;;;;;;;;;;;;;;17.01;72.52;98835.09;4350857;32;31957;-89
2021/11/04 10:23:09;;;;;;;;;;;;;;;16.69;73.40;98834.28;4350721;32;34156;-89
2021/11/04 10:25:37;;;;;;;;;;;;;;;16.98;72.58;98835.34;4350046;32;34303;-89
2021/11/04 10:28:21;;;;;;;;;;;;;;;16.55;74.45;98844.28;4350961;32;33822;-89
2021/11/04 10:30:50;;;;;;;;;;;;;;;17.01;72.57;98840.44;4338659;32;32739;-89
2021/11/04 10:33:23;;;;;;;;;;;;;;;17.02;72.60;98841.28;4348413;32;32614;-89
2021/11/04 10:36:26;;;;;;;;;;;;;;;16.83;73.86;98850.84;4348397;33;33469;-89
2021/11/04 10:38:56;;;;;;;;;;;;;;;17.21;72.49;98867.22;4364357;32;34827;-89
2021/11/04 10:41:27;;;;;;;;;;;;;;;17.25;72.75;98857.97;4348268;32;32419;-89
2021/11/04 10:44:05;;;;;;;;;;;;;;;17.51;71.67;98859.22;4362960;32;33045;-91
2021/11/04 10:46:40;;;;;;;;;;;;;;;17.35;72.12;98872.22;4363413;32;33602;-90
2021/11/04 10:49:42;;;;;;;;;;;;;;;17.25;72.63;98882.00;4372508;32;33285;-89
2021/11/04 10:52:17;;;;;;;;;;;;;;;17.31;72.66;98876.12;4387973;32;32548;-89
2021/11/04 10:55:16;;;;;;;;;;;;;;;17.55;71.95;98882.00;4357981;32;32677;-90
2021/11/04 10:58:05;;;;;;;;;;;;;;;17.24;73.29;98888.31;4372286;32;32936;-90
2021/11/04 11:00:47;;;;;;;;;;;;;;;17.40;73.05;98889.50;4314394;33;33162;-89
2021/11/04 11:03:30;;;;;;;;;;;;;;;17.61;71.82;98886.81;4365483;32;32002;-90
2021/11/04 11:06:33;;;;;;;;;;;;;;;17.76;71.17;98884.66;4332720;33;33063;-89
2021/11/04 11:13:21;;;;;;;;;;;;;;;17.76;71.50;98895.34;4349978;33;34918;-89
2021/11/04 11:16:16;;;;;;;;;;;;;;;17.55;72.29;98903.34;4366287;32;32012;-90
2021/11/04 11:18:59;;;;;;;;;;;;;;;17.65;72.12;98900.72;4366135;32;32893;-90
2021/11/04 11:22:01;;;;;;;;;;;;;;;17.58;72.21;98895.09;4346086;32;28809;-84
2021/11/04 11:24:30;;;;;;;;;;;;;;;17.66;72.28;98887.25;4376234;32;33059;-83
2021/11/04 11:26:59;;;;;;;;;;;;;;;17.85;71.93;98894.53;4373629;32;33735;-84
2021/11/04 11:29:31;;;;;;;;;;;;;;;17.98;71.31;98904.97;4364389;32;33958;-85
2021/11/04 11:31:58;;;;;;;;;;;;;;;17.85;71.88;98899.00;4374637;32;32899;-84
2021/11/04 11:34:27;;;;;;;;;;;;;;;17.75;72.51;98906.13;4371047;32;33391;-86
2021/11/04 11:37:30;;;;;;;;;;;;;;;17.99;72.08;98913.81;4376752;32;32845;-85
2021/11/04 11:40:09;;;;;;;;;;;;;;;18.09;71.58;98912.03;4370131;32;34567;-85
2021/11/04 11:42:38;;;;;;;;;;;;;;;18.32;70.82;98907.28;4361766;32;34571;-85
2021/11/04 11:45:13;;;;;;;;;;;;;;;18.23;71.18;98918.81;4374323;32;34232;-85
2021/11/04 11:47:45;;;;;;;;;;;;;;;18.54;69.98;98915.06;4376161;32;32896;-84
2021/11/04 11:50:21;;;;;;;;;;;;;;;18.33;70.13;98914.34;4375556;32;34932;-85
2021/11/04 11:52:51;;;;;;;;;;;;;;;18.23;70.59;98926.81;4373848;32;33233;-84
2021/11/04 11:55:22;;;;;;;;;;;;;;;18.29;70.44;98931.63;4373136;32;33704;-85
2021/11/04 11:58:19;;;;;;;;;;;;;;;18.25;70.71;98941.75;4372756;32;32311;-85
2021/11/04 12:00:49;;;;;;;;;;;;;;;18.44;69.87;98927.59;4373079;32;33767;-85
2021/11/04 12:03:32;;;;;;;;;;;;;;;18.44;70.10;98930.25;4375823;32;33532;-85
2021/11/04 12:05:59;;;;;;;;;;;;;;;18.56;69.84;98918.47;4366430;32;33630;-85
2021/11/04 12:08:27;;;;;;;;;;;;;;;18.22;71.01;98935.81;4372972;32;33906;-85
2021/11/04 12:10:55;;;;;;;;;;;;;;;18.22;71.35;98938.50;4374621;32;34582;-85
2021/11/04 12:13:32;;;;;;;;;;;;;;;18.22;71.45;98934.00;4375789;32;33593;-85
2021/11/04 12:16:07;;;;;;;;;;;;;;;18.66;70.78;98926.50;4375093;32;32913;-85
2021/11/04 12:18:36;;;;;;;;;;;;;;;18.77;70.52;98921.03;4372839;32;32622;-85
2021/11/04 12:21:05;;;;;;;;;;;;;;;18.59;71.52;98917.31;4370176;32;34620;-85
2021/11/04 12:23:53;;;;;;;;;;;;;;;18.63;71.49;98922.25;4357872;32;33203;-85
2021/11/04 12:26:31;;;;;;;;;;;;;;;18.73;71.71;98921.44;4367604;32;33624;-85
2021/11/04 12:28:58;;;;;;;;;;;;;;;18.73;71.34;98916.94;4358200;32;33740;-85
2021/11/04 12:31:27;;;;;;;;;;;;;;;18.59;70.35;98907.47;4360440;32;33949;-84
2021/11/04 12:33:55;;;;;;;;;;;;;;;18.72;70.24;98919.78;4342445;32;34353;-83
2021/11/04 12:36:37;;;;;;;;;;;;;;;18.71;69.91;98908.22;4371547;32;33246;-84
2021/11/04 12:39:20;;;;;;;;;;;;;;;18.77;69.65;98902.31;4369822;32;31977;-84
2021/11/04 12:41:49;;;;;;;;;;;;;;;18.86;69.38;98896.13;4350943;32;33816;-88
2021/11/04 12:44:27;;;;;;;;;;;;;;;18.31;71.24;98887.75;4370716;32;35032;-87
2021/11/04 12:46:55;;;;;;;;;;;;;;;18.11;71.91;98902.91;4372299;32;33258;-87
2021/11/04 12:49:24;;;;;;;;;;;;;;;17.98;72.06;98899.62;4362170;32;33316;-88
2021/11/04 12:51:53;;;;;;;;;;;;;;;18.33;70.37;98914.34;4364710;32;33850;-87
2021/11/04 12:54:22;;;;;;;;;;;;;;;17.96;70.88;98916.78;4362524;32;34415;-87
2021/11/04 12:56:52;;;;;;;;;;;;;;;17.98;70.24;98923.66;4360658;32;33057;-87
2021/11/04 12:59:29;;;;;;;;;;;;;;;17.60;69.99;98932.31;4349611;32;32257;-88
2021/11/04 13:01:57;;;;;;;;;;;;;;;17.98;68.88;98947.69;4359812;32;32823;-87
2021/11/04 13:04:31;;;;;;;;;;;;;;;18.34;66.54;98946.28;4360726;32;33783;-88
2021/11/04 13:07:00;;;;;;;;;;;;;;;18.22;67.67;98949.19;4361124;32;33264;-88